Terminal Aerodrome Forecast
Issued by NWS

Home | Current Version | Previous Version | Text Only | Print | Product List | Glossary On
Versions: 1 2 3 4 5 6 7 8 9 10 11 12 13 14 15 16 17 18 19 20 21 22 23 24
152
FTUS43 KGRR 051917 AAA
TAFAZO
TAF AMD
KAZO 051917Z 0519/0618 01007KT P6SM SCT050
     FM052300 29007KT P6SM SKC
     FM060600 00000KT P6SM SKC
     FM061500 25006KT P6SM SKC=

USA.gov is the U.S. government's official web portal to all federal, state and local government web resources and services.